Time;durP1;ratioP1;P1;durP2;ratioP2;P2;SDS_P1;SDS_P2;PMS_P1;PMS_P2;Temp;Humidity;BMP_temperature;BMP_pressure;BME280_temperature;BME280_humidity;BME280_pressure;Samples;Min_cycle;Max_cycle;Signal;HPM_P1;HPM_P2
2022/04/03 00:00:37;;;;;;;6.75;3.22;;;;;;;1.21;58.24;102103.00;3576887;40;20068;-62
2022/04/03 00:03:04;;;;;;;4.22;3.05;;;;;;;1.14;57.21;102104.75;3564459;40;20063;-62
2022/04/03 00:05:35;;;;;;;7.10;3.67;;;;;;;1.15;56.76;102109.19;3576651;40;20044;-62
2022/04/03 00:08:00;;;;;;;7.63;3.70;;;;;;;1.14;58.32;102105.66;3573021;40;20189;-61
2022/04/03 00:10:26;;;;;;;5.63;3.38;;;;;;;1.08;57.48;102097.72;3571424;40;20056;-62
2022/04/03 00:12:52;;;;;;;4.53;3.28;;;;;;;1.07;57.08;102101.25;3573066;40;20298;-61
2022/04/03 00:15:18;;;;;;;7.30;3.15;;;;;;;1.06;57.66;102106.56;3575301;40;20380;-61
2022/04/03 00:17:45;;;;;;;4.85;3.10;;;;;;;1.05;57.79;102105.69;3566089;40;20052;-61
2022/04/03 00:20:13;;;;;;;4.68;3.00;;;;;;;1.06;58.50;102106.56;3572154;40;20168;-61
2022/04/03 00:22:40;;;;;;;4.20;2.88;;;;;;;1.01;57.92;102103.91;3576124;40;20056;-62
2022/04/03 00:25:06;;;;;;;4.72;2.97;;;;;;;1.00;57.92;102101.28;3567617;40;20458;-62
2022/04/03 00:27:31;;;;;;;6.32;3.15;;;;;;;0.82;58.58;102073.94;3575417;40;20052;-62
2022/04/03 00:29:57;;;;;;;9.05;3.53;;;;;;;0.96;58.00;102104.81;3572460;40;20056;-62
2022/04/03 00:32:23;;;;;;;6.60;3.35;;;;;;;0.93;58.38;102103.06;3582677;39;20053;-62
2022/04/03 00:34:49;;;;;;;6.32;3.38;;;;;;;0.65;58.32;102060.72;3564352;40;20052;-62
2022/04/03 00:37:15;;;;;;;8.00;5.40;;;;;;;0.77;58.35;102096.03;3573528;40;20561;-62
2022/04/03 00:39:41;;;;;;;16.40;8.85;;;;;;;0.78;58.39;102103.06;3569773;40;20395;-62
2022/04/03 00:42:09;;;;;;;40.58;22.55;;;;;;;0.49;59.03;102058.97;3572522;40;20058;-62
2022/04/03 00:44:36;;;;;;;61.95;34.20;;;;;;;0.63;59.22;102091.59;3576165;40;20098;-62
2022/04/03 00:47:03;;;;;;;30.02;17.02;;;;;;;0.66;59.96;102099.53;3570616;40;20068;-62
2022/04/03 00:49:30;;;;;;;18.75;10.98;;;;;;;0.64;59.88;102096.03;3565287;40;20064;-62
2022/04/03 00:51:57;;;;;;;23.45;14.77;;;;;;;0.61;59.56;102101.31;3570242;40;20047;-63
2022/04/03 00:54:22;;;;;;;19.50;11.05;;;;;;;0.59;59.39;102104.84;3574875;40;20052;-62
2022/04/03 00:56:49;;;;;;;20.85;14.13;;;;;;;0.55;59.96;102103.97;3568858;40;20117;-62
2022/04/03 00:59:15;;;;;;;25.67;17.90;;;;;;;0.53;60.23;102097.78;3573152;40;20185;-62
2022/04/03 01:01:43;;;;;;;24.13;16.92;;;;;;;0.52;59.77;102101.31;3574437;40;20048;-62
2022/04/03 01:04:10;;;;;;;22.00;13.95;;;;;;;0.48;59.98;102099.56;3563886;40;24215;-62
2022/04/03 01:06:36;;;;;;;17.02;12.65;;;;;;;0.46;60.96;102103.94;3573846;40;20055;-62
2022/04/03 01:09:04;;;;;;;13.63;10.48;;;;;;;0.36;61.13;102084.56;3572540;40;20066;-62
2022/04/03 01:11:30;;;;;;;13.68;9.38;;;;;;;0.42;61.16;102102.19;3568917;40;20417;-62
2022/04/03 01:13:57;;;;;;;12.73;8.27;;;;;;;0.39;60.62;102088.97;3568773;40;20756;-62
2022/04/03 01:16:23;;;;;;;9.20;5.80;;;;;;;0.37;60.94;102088.06;3573782;40;20052;-62
2022/04/03 01:18:49;;;;;;;7.63;4.70;;;;;;;0.33;61.59;102095.13;3572752;40;20053;-62
2022/04/03 01:21:18;;;;;;;10.27;5.50;;;;;;;0.27;61.61;102089.84;3564164;40;20068;-62
2022/04/03 01:23:45;;;;;;;11.88;5.97;;;;;;;0.30;60.97;102094.25;3575050;40;20055;-62
2022/04/03 01:26:10;;;;;;;6.55;3.60;;;;;;;0.25;61.27;102093.34;3571106;40;20060;-62
2022/04/03 01:28:36;;;;;;;7.05;3.92;;;;;;;-0.21;62.20;102038.66;3569009;40;20068;-63
2022/04/03 01:31:03;;;;;;;8.30;3.88;;;;;;;-0.07;62.27;102062.47;3568573;40;20065;-62
2022/04/03 01:33:28;;;;;;;8.43;3.55;;;;;;;0.09;63.43;102090.69;3574773;40;20394;-62
2022/04/03 01:35:54;;;;;;;7.38;4.15;;;;;;;0.08;62.53;102093.34;3563886;40;20106;-62
2022/04/03 01:38:20;;;;;;;8.23;5.10;;;;;;;0.02;62.58;102099.47;3572173;40;20067;-62
2022/04/03 01:40:45;;;;;;;7.72;4.53;;;;;;;0.00;63.63;102093.34;3572538;40;20056;-62
2022/04/03 01:43:11;;;;;;;6.75;3.88;;;;;;;-0.04;63.58;102097.69;3565958;40;20064;-62
2022/04/03 01:45:38;;;;;;;5.07;3.53;;;;;;;-0.06;63.21;102095.97;3572558;40;20577;-62
2022/04/03 01:48:07;;;;;;;8.05;4.10;;;;;;;-0.37;63.97;102048.31;3571237;40;20074;-62
2022/04/03 01:50:33;;;;;;;8.73;3.55;;;;;;;-0.15;63.24;102090.66;3573388;40;20048;-62
2022/04/03 01:52:59;;;;;;;6.60;3.80;;;;;;;-0.17;64.25;102092.38;3563132;40;20625;-62
2022/04/03 01:55:26;;;;;;;8.75;3.95;;;;;;;-0.19;63.47;102087.13;3573954;40;20480;-62
2022/04/03 01:57:52;;;;;;;9.27;4.18;;;;;;;-0.19;63.58;102094.13;3567848;40;20048;-62
2022/04/03 02:00:19;;;;;;;6.03;3.88;;;;;;;-0.23;64.28;102082.69;3580001;40;20590;-62
2022/04/03 02:02:45;;;;;;;8.70;4.70;;;;;;;-0.24;64.82;102089.72;3571481;40;20286;-62
2022/04/03 02:05:11;;;;;;;10.82;6.20;;;;;;;-0.23;64.16;102093.25;3573554;40;20052;-62
2022/04/03 02:07:38;;;;;;;9.60;5.50;;;;;;;-0.25;64.56;102087.97;3567572;40;20092;-62
2022/04/03 02:10:09;;;;;;;6.97;3.97;;;;;;;-0.29;64.73;102080.91;3572873;40;20659;-62
2022/04/03 02:12:36;;;;;;;6.75;4.40;;;;;;;-0.37;64.17;102077.34;3575369;40;20044;-62
2022/04/03 02:15:05;;;;;;;8.48;5.03;;;;;;;-0.33;64.87;102080.91;3567273;40;20063;-62
2022/04/03 02:17:31;;;;;;;9.50;5.80;;;;;;;-0.37;63.53;102077.34;3575309;40;20103;-62
2022/04/03 02:19:57;;;;;;;8.57;5.65;;;;;;;-0.50;64.68;102051.78;3569592;40;20627;-62
2022/04/03 02:22:22;;;;;;;13.43;5.38;;;;;;;-0.34;63.59;102082.66;3574142;40;20461;-62
2022/04/03 02:24:48;;;;;;;8.75;5.25;;;;;;;-0.36;64.62;102071.19;3565959;40;20056;-62
2022/04/03 02:27:14;;;;;;;7.75;5.30;;;;;;;-0.38;64.08;102078.25;3574703;40;20652;-62
2022/04/03 02:29:39;;;;;;;7.63;4.70;;;;;;;-0.82;64.19;102012.94;3573157;40;20066;-62
2022/04/03 02:32:05;;;;;;;7.43;4.18;;;;;;;-0.44;64.91;102077.31;3568500;40;20048;-63
2022/04/03 02:34:31;;;;;;;6.53;4.32;;;;;;;-0.45;66.12;102072.91;3572336;40;20392;-62
2022/04/03 02:36:56;;;;;;;6.18;4.05;;;;;;;-0.49;66.10;102074.66;3573243;40;20068;-62
2022/04/03 02:39:22;;;;;;;5.45;4.75;;;;;;;-0.51;66.13;102081.69;3565182;40;20040;-62
2022/04/03 02:41:47;;;;;;;7.65;4.25;;;;;;;-0.54;65.92;102076.41;3574313;40;20044;-62
2022/04/03 02:44:15;;;;;;;7.40;4.45;;;;;;;-0.56;66.04;102078.19;3574699;40;20056;-62
2022/04/03 02:46:40;;;;;;;8.02;4.32;;;;;;;-0.57;65.67;102076.38;3566854;40;20049;-62
2022/04/03 02:49:08;;;;;;;8.50;4.13;;;;;;;-0.64;66.12;102064.03;3570829;40;20217;-63
2022/04/03 02:51:37;;;;;;;8.10;4.05;;;;;;;-0.88;66.39;102030.50;3576020;40;20067;-62
2022/04/03 02:54:03;;;;;;;6.88;3.67;;;;;;;-0.71;65.71;102058.72;3573180;40;20689;-62
2022/04/03 02:56:29;;;;;;;4.63;4.00;;;;;;;-0.60;65.91;102086.94;3565665;40;20052;-62
2022/04/03 02:58:55;;;;;;;6.28;4.28;;;;;;;-0.66;65.92;102071.97;3572317;40;20125;-62
2022/04/03 03:01:22;;;;;;;8.77;4.50;;;;;;;-0.61;65.96;102087.81;3568983;40;20056;-62
2022/04/03 03:03:48;;;;;;;5.78;4.20;;;;;;;-0.62;65.31;102088.72;3574319;40;21005;-62
2022/04/03 03:06:17;;;;;;;5.97;4.07;;;;;;;-0.72;66.22;102066.66;3570039;40;20060;-62
2022/04/03 03:08:42;;;;;;;5.65;3.97;;;;;;;-0.65;65.85;102088.69;3575156;40;20046;-62
2022/04/03 03:11:08;;;;;;;6.82;4.32;;;;;;;-0.66;65.53;102086.94;3561732;40;20068;-62
2022/04/03 03:13:34;;;;;;;8.45;5.10;;;;;;;-0.67;66.04;102090.44;3574879;40;20068;-62
2022/04/03 03:16:00;;;;;;;6.93;4.00;;;;;;;-0.69;65.80;102089.56;3566860;40;20159;-62
2022/04/03 03:18:26;;;;;;;6.07;3.97;;;;;;;-0.71;65.95;102089.53;3574582;40;20398;-62
2022/04/03 03:20:51;;;;;;;5.03;3.58;;;;;;;-0.73;66.87;102091.28;3570879;40;20088;-62
2022/04/03 03:23:17;;;;;;;7.72;4.30;;;;;;;-0.75;66.53;102095.69;3575321;40;20059;-62
2022/04/03 03:25:45;;;;;;;7.20;4.82;;;;;;;-0.76;65.45;102089.53;3575940;40;20048;-62
2022/04/03 03:28:11;;;;;;;5.63;3.90;;;;;;;-0.82;66.37;102085.97;3564737;40;20055;-62
2022/04/03 03:30:37;;;;;;;9.13;4.25;;;;;;;-0.82;66.52;102091.25;3574866;40;20072;-62
2022/04/03 03:33:03;;;;;;;7.32;4.13;;;;;;;-0.83;66.25;102100.91;3569014;40;20055;-62
2022/04/03 03:35:29;;;;;;;7.00;4.57;;;;;;;-0.90;66.85;102093.84;3574016;40;20052;-62
2022/04/03 03:37:54;;;;;;;5.80;4.20;;;;;;;-0.88;67.26;102102.66;3573592;40;20083;-62
2022/04/03 03:40:20;;;;;;;7.18;4.40;;;;;;;-0.87;66.74;102099.13;3576865;40;20052;-62
2022/04/03 03:42:45;;;;;;;6.97;4.45;;;;;;;-0.88;67.08;102101.78;3565888;40;20052;-62
2022/04/03 03:45:14;;;;;;;6.38;4.40;;;;;;;-0.90;66.61;102096.47;3572693;40;20114;-62
2022/04/03 03:47:43;;;;;;;6.53;4.53;;;;;;;-0.91;67.64;102101.75;3568393;40;20096;-62
2022/04/03 03:50:09;;;;;;;10.00;4.80;;;;;;;-0.91;67.37;102102.63;3572310;40;20060;-62
2022/04/03 03:52:35;;;;;;;10.52;5.00;;;;;;;-0.93;66.87;102109.66;3571874;40;20068;-62
2022/04/03 03:55:00;;;;;;;9.32;5.00;;;;;;;-0.93;66.92;102093.81;3571285;40;20132;-62
2022/04/03 03:57:26;;;;;;;9.48;4.88;;;;;;;-0.96;66.39;102091.16;3576864;40;20082;-62
2022/04/03 03:59:52;;;;;;;8.18;4.63;;;;;;;-0.94;66.29;102097.34;3563485;40;20071;-62
2022/04/03 04:02:18;;;;;;;10.13;4.70;;;;;;;-1.01;66.65;102082.34;3569785;40;20133;-62
2022/04/03 04:04:44;;;;;;;7.57;4.90;;;;;;;-1.00;66.61;102097.28;3575847;40;20052;-62
2022/04/03 04:07:10;;;;;;;8.50;4.82;;;;;;;-1.07;67.51;102084.94;3571261;40;20084;-62
2022/04/03 04:09:36;;;;;;;8.85;5.28;;;;;;;-1.02;67.11;102093.75;3577092;40;20063;-62
2022/04/03 04:12:03;;;;;;;8.82;4.72;;;;;;;-1.05;67.81;102101.66;3572995;40;20092;-62
2022/04/03 04:14:29;;;;;;;5.55;4.28;;;;;;;-1.10;68.14;102091.09;3566135;40;20060;-62
2022/04/03 04:16:54;;;;;;;6.60;4.53;;;;;;;-1.05;67.74;102101.66;3573330;40;20063;-62
2022/04/03 04:19:20;;;;;;;6.85;4.28;;;;;;;-1.18;67.25;102075.19;3576854;39;20117;-62
2022/04/03 04:21:46;;;;;;;7.65;4.28;;;;;;;-1.07;67.00;102106.06;3573263;40;20048;-62
2022/04/03 04:24:11;;;;;;;7.95;4.53;;;;;;;-1.08;66.86;102099.91;3574189;40;20598;-64
2022/04/03 04:26:38;;;;;;;6.97;4.47;;;;;;;-1.08;66.81;102105.19;3575859;40;20048;-62
2022/04/03 04:29:04;;;;;;;6.28;4.35;;;;;;;-1.17;66.98;102087.53;3563577;40;20495;-62
2022/04/03 04:31:29;;;;;;;7.75;4.45;;;;;;;-1.10;67.01;102106.03;3575920;40;20357;-62
2022/04/03 04:33:55;;;;;;;6.47;4.15;;;;;;;-1.11;67.76;102104.25;3567968;40;20056;-62
2022/04/03 04:36:21;;;;;;;10.63;5.32;;;;;;;-1.14;67.13;102109.50;3573801;40;20058;-62
2022/04/03 04:38:47;;;;;;;8.48;5.03;;;;;;;-1.14;67.60;102117.41;3575115;40;20063;-62
2022/04/03 04:41:12;;;;;;;8.60;4.60;;;;;;;-1.17;67.28;102113.91;3575016;40;20064;-62
2022/04/03 04:43:38;;;;;;;5.47;4.60;;;;;;;-1.23;67.19;102111.22;3574801;40;20429;-62
2022/04/03 04:46:04;;;;;;;8.13;5.22;;;;;;;-1.17;67.57;102121.81;3566315;40;20067;-62
2022/04/03 04:48:30;;;;;;;7.25;5.00;;;;;;;-1.17;67.95;102110.38;3570607;40;20100;-62
2022/04/03 04:50:56;;;;;;;9.75;5.32;;;;;;;-1.17;67.44;102111.25;3573119;40;20484;-62
2022/04/03 04:53:21;;;;;;;9.75;4.70;;;;;;;-1.19;68.22;102104.22;3571847;40;20052;-62
2022/04/03 04:55:47;;;;;;;7.60;4.97;;;;;;;-1.18;69.00;102117.41;3573243;40;20068;-62
2022/04/03 04:58:13;;;;;;;7.40;4.60;;;;;;;-1.17;68.77;102116.53;3575220;40;20069;-62
2022/04/03 05:00:38;;;;;;;6.90;5.00;;;;;;;-1.15;68.23;102113.03;3567678;40;20528;-62
2022/04/03 05:03:04;;;;;;;6.35;4.53;;;;;;;-1.17;68.58;102124.47;3573770;40;20060;-63
2022/04/03 05:05:32;;;;;;;8.15;5.30;;;;;;;-1.17;68.24;102129.72;3570396;40;20064;-63
2022/04/03 05:08:00;;;;;;;7.00;4.95;;;;;;;-1.16;68.81;102138.53;3570352;40;20071;-61
2022/04/03 05:10:28;;;;;;;6.78;4.47;;;;;;;-1.14;68.28;102141.16;3575492;40;20484;-60
2022/04/03 05:12:55;;;;;;;12.02;5.32;;;;;;;-1.12;68.27;102136.78;3573253;40;20065;-61
2022/04/03 05:15:21;;;;;;;5.22;4.40;;;;;;;-1.12;67.63;102140.31;3563985;40;20077;-62
2022/04/03 05:17:48;;;;;;;8.18;4.95;;;;;;;-1.12;67.58;102128.88;3575899;40;20152;-61
2022/04/03 05:20:16;;;;;;;7.65;4.60;;;;;;;-1.06;68.03;102131.56;3569724;40;20167;-61
2022/04/03 05:22:43;;;;;;;6.68;4.55;;;;;;;-1.04;67.05;102137.75;3577936;40;20060;-61
2022/04/03 05:25:11;;;;;;;9.65;4.95;;;;;;;-1.00;67.08;102139.53;3571302;40;20105;-60
2022/04/03 05:27:41;;;;;;;7.47;5.22;;;;;;;-1.02;67.42;102143.91;3576637;40;20379;-61
2022/04/03 05:30:09;;;;;;;9.05;4.88;;;;;;;-0.99;68.06;102136.00;3562906;40;20076;-61
2022/04/03 05:32:36;;;;;;;8.80;5.18;;;;;;;-1.02;68.14;102122.78;3575601;40;20059;-61
2022/04/03 05:35:04;;;;;;;6.97;5.07;;;;;;;-0.86;67.99;102143.13;3566420;40;20100;-61
2022/04/03 05:37:30;;;;;;;8.18;5.15;;;;;;;-0.83;67.83;102143.13;3572931;40;20061;-61
2022/04/03 05:39:55;;;;;;;8.07;5.20;;;;;;;-0.75;67.65;102152.00;3570351;40;20381;-62
2022/04/03 05:42:21;;;;;;;8.43;4.45;;;;;;;-0.67;68.48;102151.16;3576995;40;20064;-62
2022/04/03 05:44:48;;;;;;;8.55;5.20;;;;;;;-0.64;68.51;102140.63;3568697;40;20089;-61
2022/04/03 05:47:17;;;;;;;8.45;4.70;;;;;;;-0.51;68.10;102150.38;3569600;40;20133;-61
2022/04/03 05:49:44;;;;;;;9.43;5.32;;;;;;;-0.50;67.38;102155.66;3573471;40;20060;-61
2022/04/03 05:52:10;;;;;;;9.45;4.93;;;;;;;-0.41;67.07;102152.19;3568713;40;20170;-61
2022/04/03 05:54:36;;;;;;;9.18;5.03;;;;;;;-0.33;67.63;102160.16;3572840;40;20044;-60
2022/04/03 05:57:03;;;;;;;6.78;5.13;;;;;;;-0.26;67.13;102162.81;3570867;40;20075;-60
2022/04/03 05:59:28;;;;;;;9.13;4.93;;;;;;;-0.17;66.66;102155.81;3575793;40;20146;-61
2022/04/03 06:01:54;;;;;;;8.70;4.78;;;;;;;-0.17;66.70;102146.13;3564957;40;20072;-61
2022/04/03 06:04:19;;;;;;;7.47;5.30;;;;;;;-0.05;67.11;102159.38;3572443;40;20067;-60
2022/04/03 06:06:45;;;;;;;8.55;5.20;;;;;;;-0.02;67.56;102155.88;3566442;40;20130;-60
2022/04/03 06:09:11;;;;;;;9.98;5.32;;;;;;;0.09;66.29;102159.41;3573657;40;20069;-60
2022/04/03 06:11:36;;;;;;;7.20;5.00;;;;;;;0.12;66.04;102154.13;3573885;40;20299;-60
2022/04/03 06:14:02;;;;;;;8.57;5.13;;;;;;;0.26;65.77;102167.41;3570005;40;20068;-61
2022/04/03 06:16:28;;;;;;;6.82;4.68;;;;;;;0.35;65.73;102166.53;3565268;40;20040;-60
2022/04/03 06:18:54;;;;;;;9.48;4.60;;;;;;;0.41;66.14;102167.44;3571682;40;20480;-59
2022/04/03 06:21:20;;;;;;;11.50;4.70;;;;;;;0.47;66.36;102163.91;3568977;40;20044;-60
2022/04/03 06:23:46;;;;;;;7.70;5.00;;;;;;;0.58;66.79;102172.75;3573450;40;20401;-60
2022/04/03 06:26:12;;;;;;;6.78;4.70;;;;;;;0.63;65.64;102160.38;3574045;40;20063;-61
2022/04/03 06:28:38;;;;;;;6.15;4.75;;;;;;;0.74;65.59;102170.13;3570182;40;20056;-61
2022/04/03 06:31:04;;;;;;;9.10;5.20;;;;;;;0.79;66.54;102173.63;3572739;40;20607;-61
2022/04/03 06:33:30;;;;;;;8.25;5.32;;;;;;;0.83;65.31;102160.41;3564128;40;20056;-61
2022/04/03 06:35:56;;;;;;;10.18;5.30;;;;;;;0.78;66.27;102142.75;3572380;40;20058;-61
2022/04/03 06:38:22;;;;;;;9.35;5.10;;;;;;;0.95;65.41;102159.50;3568176;40;20601;-61
2022/04/03 06:40:54;;;;;;;9.25;4.90;;;;;;;1.05;66.11;102171.88;3574298;40;20040;-61
2022/04/03 06:43:24;;;;;;;6.53;5.45;;;;;;;1.12;65.70;102167.44;3571574;40;20060;-62
2022/04/03 06:45:53;;;;;;;6.47;4.53;;;;;;;1.16;65.88;102151.53;3575607;40;20056;-63
2022/04/03 06:48:19;;;;;;;10.35;5.32;;;;;;;1.27;66.59;102148.91;3564299;40;20055;-63
2022/04/03 06:50:45;;;;;;;8.52;4.80;;;;;;;1.44;65.57;102159.44;3574524;40;20096;-62
2022/04/03 06:53:11;;;;;;;9.80;5.32;;;;;;;1.60;65.72;102155.84;3569704;40;20074;-63
2022/04/03 06:55:37;;;;;;;9.27;5.43;;;;;;;1.79;66.12;102166.38;3572796;40;20049;-62
2022/04/03 06:58:03;;;;;;;8.10;5.45;;;;;;;1.98;64.22;102162.78;3572468;40;21144;-62
2022/04/03 07:00:29;;;;;;;9.20;5.53;;;;;;;2.07;64.27;102145.94;3571968;40;20419;-62
2022/04/03 07:02:55;;;;;;;9.07;6.28;;;;;;;2.32;64.30;102162.59;3565709;40;20052;-62
2022/04/03 07:05:22;;;;;;;6.88;5.50;;;;;;;2.45;63.84;102163.41;3577499;40;20056;-61
2022/04/03 07:07:51;;;;;;;7.60;5.90;;;;;;;2.53;63.65;102162.44;3571257;40;20078;-62
2022/04/03 07:10:17;;;;;;;7.43;5.97;;;;;;;2.62;63.31;102163.28;3574219;40;20414;-63
2022/04/03 07:12:43;;;;;;;7.57;5.82;;;;;;;2.16;62.61;102070.72;3576243;40;20048;-62
2022/04/03 07:15:11;;;;;;;7.07;5.50;;;;;;;2.82;63.71;102168.41;3570826;40;20067;-63
2022/04/03 07:17:41;;;;;;;8.27;6.35;;;;;;;2.91;63.33;102168.34;3576383;40;20096;-62
2022/04/03 07:20:08;;;;;;;7.95;6.85;;;;;;;3.13;63.50;102164.59;3569494;40;20342;-62
2022/04/03 07:22:34;;;;;;;9.68;6.95;;;;;;;3.47;62.94;102166.91;3577689;40;20068;-63
2022/04/03 07:25:00;;;;;;;7.63;6.28;;;;;;;3.69;61.95;102167.56;3566797;40;20055;-63
2022/04/03 07:27:27;;;;;;;8.90;6.53;;;;;;;3.94;60.88;102174.34;3577196;40;20500;-62
2022/04/03 07:29:53;;;;;;;11.73;6.53;;;;;;;4.20;60.25;102162.47;3573251;40;20383;-62
2022/04/03 07:32:18;;;;;;;9.45;5.82;;;;;;;4.48;60.21;102162.94;3575075;40;20152;-65
2022/04/03 07:34:44;;;;;;;7.55;5.70;;;;;;;4.82;59.09;102167.72;3565989;40;20502;-62
2022/04/03 07:37:13;;;;;;;7.75;5.03;;;;;;;4.66;58.14;102092.53;3576501;40;20137;-62
2022/04/03 07:39:38;;;;;;;7.28;5.63;;;;;;;5.43;57.83;102171.13;3571813;40;20058;-62
2022/04/03 07:42:04;;;;;;;10.07;5.90;;;;;;;5.75;57.07;102182.03;3572653;40;20064;-62
2022/04/03 07:44:30;;;;;;;6.78;5.30;;;;;;;5.90;55.93;102145.25;3578897;40;20088;-63
2022/04/03 07:46:55;;;;;;;7.40;5.10;;;;;;;6.38;55.29;102171.84;3573144;40;20059;-62
2022/04/03 07:49:21;;;;;;;6.57;4.97;;;;;;;6.69;54.33;102170.22;3575587;40;20059;-63
2022/04/03 07:51:47;;;;;;;8.30;5.22;;;;;;;6.91;54.04;102173.25;3563564;40;20044;-62
2022/04/03 07:54:14;;;;;;;8.52;5.13;;;;;;;7.18;53.67;102163.63;3576298;40;20056;-64
2022/04/03 07:56:40;;;;;;;8.70;5.05;;;;;;;7.52;52.90;102176.13;3572217;40;20119;-63
2022/04/03 07:59:06;;;;;;;7.05;4.53;;;;;;;7.78;50.66;102171.81;3573831;40;20345;-65
2022/04/03 08:01:33;;;;;;;6.43;4.35;;;;;;;7.81;49.98;102148.53;3574252;40;20052;-64
2022/04/03 08:03:59;;;;;;;5.95;4.30;;;;;;;8.09;49.25;102174.50;3569421;40;20060;-63
2022/04/03 08:06:25;;;;;;;4.03;3.28;;;;;;;8.24;47.96;102179.34;3565395;40;20064;-64
2022/04/03 08:08:50;;;;;;;7.13;3.60;;;;;;;7.98;47.34;102098.94;3572244;40;20112;-63
2022/04/03 08:11:16;;;;;;;4.28;3.53;;;;;;;8.39;46.93;102161.09;3571553;40;20379;-64
2022/04/03 08:13:43;;;;;;;4.60;3.13;;;;;;;8.58;46.60;102173.88;3574411;40;20048;-64
2022/04/03 08:16:09;;;;;;;4.53;3.35;;;;;;;8.56;45.83;102154.31;3563101;40;21817;-64
2022/04/03 08:18:35;;;;;;;4.03;2.83;;;;;;;7.48;45.54;101941.66;3571708;40;20106;-65
2022/04/03 08:21:00;;;;;;;5.03;2.75;;;;;;;8.99;44.77;102173.44;3567613;40;20751;-65
2022/04/03 08:23:29;;;;;;;3.35;2.40;;;;;;;8.93;43.29;102150.38;3566225;40;20389;-63
2022/04/03 08:25:55;;;;;;;5.07;2.30;;;;;;;9.33;43.38;102183.91;3568488;40;20349;-63
2022/04/03 08:28:22;;;;;;;4.32;2.50;;;;;;;9.58;42.72;102188.38;3576152;40;20052;-65
2022/04/03 08:30:48;;;;;;;5.55;2.92;;;;;;;9.65;43.25;102185.44;3573796;40;20406;-63
2022/04/03 08:33:13;;;;;;;5.03;2.40;;;;;;;9.82;42.88;102187.50;3568642;40;20156;-63
2022/04/03 08:35:40;;;;;;;2.28;2.08;;;;;;;9.99;42.46;102189.59;3569520;40;20048;-63
2022/04/03 08:38:07;;;;;;;3.28;2.05;;;;;;;10.16;40.99;102186.25;3565651;40;21386;-64
2022/04/03 08:40:35;;;;;;;2.00;1.80;;;;;;;10.27;41.40;102184.03;3575928;40;20056;-64
2022/04/03 08:43:03;;;;;;;4.00;2.40;;;;;;;10.39;40.61;102186.25;3566092;40;20052;-66
2022/04/03 08:45:29;;;;;;;2.40;2.17;;;;;;;10.41;40.35;102172.78;3577226;40;20070;-64
2022/04/03 08:47:59;;;;;;;5.07;2.28;;;;;;;10.56;39.89;102180.22;3573671;40;20055;-66
2022/04/03 08:50:33;;;;;;;3.22;1.92;;;;;;;10.59;39.84;102185.47;3564633;40;20061;-66
2022/04/03 08:53:03;;;;;;;3.25;1.80;;;;;;;10.71;40.18;102184.09;3565513;40;20065;-65
2022/04/03 08:55:30;;;;;;;4.43;2.00;;;;;;;10.83;40.03;102180.91;3575244;40;20071;-67
2022/04/03 08:57:57;;;;;;;2.28;1.90;;;;;;;10.88;39.00;102181.59;3567667;39;20371;-64
2022/04/03 09:00:23;;;;;;;3.83;1.90;;;;;;;10.91;38.44;102170.72;3574941;40;20067;-65
2022/04/03 09:02:52;;;;;;;5.13;1.80;;;;;;;11.17;38.70;102171.44;3574420;40;20080;-64
2022/04/03 09:05:19;;;;;;;3.15;1.80;;;;;;;11.18;39.00;102189.31;3571779;40;20051;-66
2022/04/03 09:08:00;;;;;;;5.00;2.28;;;;;;;11.22;38.82;102185.53;3570441;40;20060;-65
2022/04/03 09:10:26;;;;;;;6.63;2.00;;;;;;;11.06;39.04;102127.94;3563946;40;20056;-65
2022/04/03 09:12:52;;;;;;;3.40;2.35;;;;;;;11.62;37.90;102178.44;3566373;40;20344;-64
2022/04/03 09:15:21;;;;;;;4.22;2.20;;;;;;;11.78;39.07;102182.19;3573673;40;20121;-65
2022/04/03 09:17:52;;;;;;;3.50;2.25;;;;;;;11.99;38.10;102182.19;3573146;40;20071;-64
2022/04/03 09:20:24;;;;;;;2.03;1.80;;;;;;;12.02;37.33;102182.94;3570639;40;20406;-64
2022/04/03 09:22:54;;;;;;;2.35;1.73;;;;;;;12.04;36.60;102175.63;3567669;40;20086;-64
2022/04/03 09:25:27;;;;;;;3.55;1.85;;;;;;;12.17;36.65;102173.22;3564458;40;20056;-64
2022/04/03 09:27:55;;;;;;;;;;;;;;;12.32;36.77;102161.72;3566762;40;20056;-64
2022/04/03 09:30:31;;;;;;;3.67;1.90;;;;;;;12.20;36.47;102165.00;3572205;40;19967;-64
2022/04/03 09:33:00;;;;;;;2.78;1.65;;;;;;;11.81;35.60;102179.34;3572748;40;20704;-65
2022/04/03 09:35:32;;;;;;;3.03;1.30;;;;;;;11.56;36.35;102167.94;3576576;40;20149;-65
2022/04/03 09:38:14;;;;;;;4.75;1.70;;;;;;;11.87;37.69;102169.28;3565003;40;20524;-65
2022/04/03 09:40:49;;;;;;;3.13;1.70;;;;;;;11.98;35.90;102140.00;3563975;40;20052;-65
2022/04/03 09:43:38;;;;;;;1.83;1.70;;;;;;;12.29;36.94;102159.19;3566488;40;20141;-65
2022/04/03 09:46:10;;;;;;;2.60;1.70;;;;;;;12.55;35.59;102157.03;3569963;40;20071;-64
2022/04/03 09:48:43;;;;;;;3.83;1.95;;;;;;;12.80;35.35;102159.41;3572793;40;20059;-63
2022/04/03 09:51:19;;;;;;;2.63;1.88;;;;;;;12.64;36.79;102159.28;3569146;40;20059;-63
2022/04/03 09:53:52;;;;;;;3.28;1.80;;;;;;;12.63;35.33;102157.56;3564260;40;20117;-63
2022/04/03 09:56:23;;;;;;;2.30;1.05;;;;;;;12.42;35.71;102158.59;3560311;40;20083;-64
2022/04/03 09:58:49;;;;;;;2.67;1.30;;;;;;;12.20;36.01;102154.22;3567014;40;20059;-63
2022/04/03 10:01:34;;;;;;;1.70;1.10;;;;;;;11.91;35.25;102146.63;3567063;40;20044;-63
2022/04/03 10:04:02;;;;;;;2.55;1.30;;;;;;;12.15;34.84;102145.50;3566309;40;20060;-62
2022/04/03 10:06:30;;;;;;;2.75;1.27;;;;;;;12.28;35.33;102127.78;3573754;40;20049;-64
2022/04/03 10:08:58;;;;;;;2.60;1.58;;;;;;;12.39;35.27;102129.06;3565563;40;20094;-63
2022/04/03 10:11:24;;;;;;;4.50;1.48;;;;;;;12.64;35.75;102116.13;3571175;40;20057;-65
2022/04/03 10:13:50;;;;;;;2.92;1.30;;;;;;;12.77;34.59;102132.59;3560854;40;20052;-65
2022/04/03 10:16:19;;;;;;;3.85;1.20;;;;;;;12.38;34.15;102120.13;3564209;40;20052;-65
2022/04/03 10:18:47;;;;;;;1.63;1.20;;;;;;;12.02;34.40;102131.72;3571555;40;20060;-64
2022/04/03 10:21:49;;;;;;;3.90;1.17;;;;;;;11.67;34.82;102127.03;3571707;40;20120;-64
2022/04/03 10:24:20;;;;;;;3.33;1.33;;;;;;;11.35;35.49;102121.28;3564767;40;20048;-64
2022/04/03 10:27:19;;;;;;;3.63;1.05;;;;;;;11.21;35.37;102121.03;3569677;40;20041;-65
2022/04/03 10:29:48;;;;;;;1.13;1.02;;;;;;;10.79;35.11;102121.94;3559091;40;20056;-64
2022/04/03 10:32:35;;;;;;;3.20;1.35;;;;;;;10.56;35.47;102122.88;3569355;40;20059;-64
2022/04/03 10:35:10;;;;;;;2.70;1.15;;;;;;;10.45;37.97;102110.75;3570632;40;20067;-64
2022/04/03 10:37:39;;;;;;;2.00;1.13;;;;;;;10.84;38.19;102112.72;3572220;40;20059;-64
2022/04/03 10:40:17;;;;;;;2.15;1.30;;;;;;;11.15;37.28;102114.09;3568323;40;20060;-65
2022/04/03 10:42:56;;;;;;;2.35;1.00;;;;;;;11.84;36.63;102117.28;3569253;40;20045;-65
2022/04/03 10:45:32;;;;;;;3.63;1.40;;;;;;;12.04;34.95;102112.78;3570716;40;20056;-65
2022/04/03 10:48:19;;;;;;;1.80;1.20;;;;;;;12.05;32.95;102110.03;3563950;40;20083;-62
2022/04/03 10:51:30;;;;;;;2.55;0.93;;;;;;;11.83;33.48;102114.63;3568811;40;20049;-64
2022/04/03 10:54:01;;;;;;;1.58;1.17;;;;;;;11.52;33.78;102117.84;3566634;40;20049;-63
2022/04/03 10:56:29;;;;;;;2.05;1.33;;;;;;;11.23;35.59;102098.50;3571292;40;20398;-64
2022/04/03 10:58:57;;;;;;;3.97;1.73;;;;;;;11.27;36.63;102105.47;3563960;40;20067;-63
2022/04/03 11:01:31;;;;;;;1.80;1.27;;;;;;;11.09;36.30;102082.94;3566349;40;20052;-64
2022/04/03 11:04:12;;;;;;;;;;;;;;;10.99;36.04;102104.94;3570022;40;20599;-64
2022/04/03 11:06:40;;;;;;;4.90;1.42;;;;;;;10.85;37.65;102097.47;3579736;40;19944;-64
2022/04/03 11:09:14;;;;;;;1.75;1.50;;;;;;;10.60;38.59;102100.31;3567302;40;20052;-64
2022/04/03 11:11:58;;;;;;;2.80;1.20;;;;;;;10.43;38.41;102088.44;3572187;40;20064;-64
2022/04/03 11:14:57;;;;;;;2.03;1.50;;;;;;;10.22;38.54;102081.22;3565107;40;20066;-64
2022/04/03 11:17:51;;;;;;;2.78;1.63;;;;;;;10.28;38.06;102097.13;3566100;40;20052;-64
2022/04/03 11:20:42;;;;;;;2.03;1.20;;;;;;;10.42;38.18;102089.34;3593827;23;20051;-64
2022/04/03 11:23:16;;;;;;;5.55;1.60;;;;;;;10.71;38.08;102081.91;3586578;40;20052;-65
2022/04/03 11:25:42;;;;;;;3.50;1.58;;;;;;;10.76;38.27;102063.75;3582521;40;20067;-66
2022/04/03 11:28:09;;;;;;;2.80;1.27;;;;;;;10.67;36.99;102039.94;3586702;40;20765;-65
2022/04/03 11:30:35;;;;;;;1.85;1.42;;;;;;;10.76;37.38;102058.38;3574953;40;20056;-63